sensor_id;sensor_type;location;lat;lon;timestamp;temperature;humidity
16732;DHT22;8484;50.904;9.192;2023-06-04T00:00:19;12.50;90.10
16732;DHT22;8484;50.904;9.192;2023-06-04T00:02:47;12.60;90.10
16732;DHT22;8484;50.904;9.192;2023-06-04T00:05:14;12.50;90.20
16732;DHT22;8484;50.904;9.192;2023-06-04T00:07:41;12.40;90.20
16732;DHT22;8484;50.904;9.192;2023-06-04T00:10:09;12.40;90.30
16732;DHT22;8484;50.904;9.192;2023-06-04T00:12:36;12.40;90.10
16732;DHT22;8484;50.904;9.192;2023-06-04T00:15:03;12.40;90.10
16732;DHT22;8484;50.904;9.192;2023-06-04T00:17:30;12.50;90.20
16732;DHT22;8484;50.904;9.192;2023-06-04T00:19:59;12.40;90.30
16732;DHT22;8484;50.904;9.192;2023-06-04T00:22:26;12.40;90.60
16732;DHT22;8484;50.904;9.192;2023-06-04T00:24:53;12.30;90.40
16732;DHT22;8484;50.904;9.192;2023-06-04T00:27:20;12.30;90.90
16732;DHT22;8484;50.904;9.192;2023-06-04T00:29:46;12.20;90.80
16732;DHT22;8484;50.904;9.192;2023-06-04T00:32:14;12.30;90.60
16732;DHT22;8484;50.904;9.192;2023-06-04T00:34:40;12.20;90.90
16732;DHT22;8484;50.904;9.192;2023-06-04T00:37:09;12.20;90.90
16732;DHT22;8484;50.904;9.192;2023-06-04T00:39:36;12.20;91.20
16732;DHT22;8484;50.904;9.192;2023-06-04T00:42:03;12.10;91.20
16732;DHT22;8484;50.904;9.192;2023-06-04T00:44:30;12.10;91.30
16732;DHT22;8484;50.904;9.192;2023-06-04T00:46:59;12.10;91.20
16732;DHT22;8484;50.904;9.192;2023-06-04T00:49:26;12.00;91.10
16732;DHT22;8484;50.904;9.192;2023-06-04T00:51:53;12.10;91.30
16732;DHT22;8484;50.904;9.192;2023-06-04T00:54:21;12.00;91.20
16732;DHT22;8484;50.904;9.192;2023-06-04T00:56:48;11.90;91.40
16732;DHT22;8484;50.904;9.192;2023-06-04T00:59:15;11.80;91.60
16732;DHT22;8484;50.904;9.192;2023-06-04T01:01:46;11.90;91.70
16732;DHT22;8484;50.904;9.192;2023-06-04T01:04:27;11.90;91.90
16732;DHT22;8484;50.904;9.192;2023-06-04T01:06:57;11.80;91.90
16732;DHT22;8484;50.904;9.192;2023-06-04T01:09:27;11.70;92.10
16732;DHT22;8484;50.904;9.192;2023-06-04T01:11:56;11.70;92.30
16732;DHT22;8484;50.904;9.192;2023-06-04T01:14:24;11.70;92.30
16732;DHT22;8484;50.904;9.192;2023-06-04T01:16:56;11.50;92.90
16732;DHT22;8484;50.904;9.192;2023-06-04T01:19:58;11.50;92.60
16732;DHT22;8484;50.904;9.192;2023-06-04T01:22:35;11.50;92.80
16732;DHT22;8484;50.904;9.192;2023-06-04T01:25:07;11.40;92.80
16732;DHT22;8484;50.904;9.192;2023-06-04T01:27:35;11.40;92.90
16732;DHT22;8484;50.904;9.192;2023-06-04T01:30:04;11.40;93.30
16732;DHT22;8484;50.904;9.192;2023-06-04T01:32:31;11.30;93.50
16732;DHT22;8484;50.904;9.192;2023-06-04T01:34:59;11.20;94.00
16732;DHT22;8484;50.904;9.192;2023-06-04T01:37:26;10.90;94.20
16732;DHT22;8484;50.904;9.192;2023-06-04T01:39:53;11.00;94.60
16732;DHT22;8484;50.904;9.192;2023-06-04T01:42:21;10.90;94.80
16732;DHT22;8484;50.904;9.192;2023-06-04T01:44:48;10.90;95.20
16732;DHT22;8484;50.904;9.192;2023-06-04T01:47:15;10.90;95.10
16732;DHT22;8484;50.904;9.192;2023-06-04T01:49:42;11.10;95.00
16732;DHT22;8484;50.904;9.192;2023-06-04T01:52:09;10.90;95.00
16732;DHT22;8484;50.904;9.192;2023-06-04T01:54:36;10.90;94.80
16732;DHT22;8484;50.904;9.192;2023-06-04T01:57:04;10.90;95.40
16732;DHT22;8484;50.904;9.192;2023-06-04T01:59:33;10.90;94.90
16732;DHT22;8484;50.904;9.192;2023-06-04T02:02:02;10.90;95.20
16732;DHT22;8484;50.904;9.192;2023-06-04T02:04:29;10.80;95.20
16732;DHT22;8484;50.904;9.192;2023-06-04T02:06:56;10.80;95.50
16732;DHT22;8484;50.904;9.192;2023-06-04T02:09:25;10.70;95.90
16732;DHT22;8484;50.904;9.192;2023-06-04T02:11:53;10.60;95.80
16732;DHT22;8484;50.904;9.192;2023-06-04T02:14:20;10.50;95.90
16732;DHT22;8484;50.904;9.192;2023-06-04T02:16:48;10.50;96.10
16732;DHT22;8484;50.904;9.192;2023-06-04T02:19:15;10.50;96.10
16732;DHT22;8484;50.904;9.192;2023-06-04T02:21:44;10.50;96.40
16732;DHT22;8484;50.904;9.192;2023-06-04T02:24:11;10.70;96.30
16732;DHT22;8484;50.904;9.192;2023-06-04T02:26:37;10.70;96.20
16732;DHT22;8484;50.904;9.192;2023-06-04T02:29:05;10.80;95.70
16732;DHT22;8484;50.904;9.192;2023-06-04T02:31:32;10.70;96.10
16732;DHT22;8484;50.904;9.192;2023-06-04T02:34:01;10.70;95.70
16732;DHT22;8484;50.904;9.192;2023-06-04T02:36:29;10.70;95.80
16732;DHT22;8484;50.904;9.192;2023-06-04T02:38:56;10.70;96.00
16732;DHT22;8484;50.904;9.192;2023-06-04T02:41:23;10.70;95.90
16732;DHT22;8484;50.904;9.192;2023-06-04T02:43:50;10.70;96.00
16732;DHT22;8484;50.904;9.192;2023-06-04T02:46:17;10.50;96.10
16732;DHT22;8484;50.904;9.192;2023-06-04T02:48:44;10.60;96.40
16732;DHT22;8484;50.904;9.192;2023-06-04T02:51:12;10.70;96.10
16732;DHT22;8484;50.904;9.192;2023-06-04T02:53:39;10.50;96.10
16732;DHT22;8484;50.904;9.192;2023-06-04T02:56:06;10.50;96.40
16732;DHT22;8484;50.904;9.192;2023-06-04T02:58:34;10.60;96.60
16732;DHT22;8484;50.904;9.192;2023-06-04T03:01:05;10.50;96.80
16732;DHT22;8484;50.904;9.192;2023-06-04T03:03:32;10.40;96.60
16732;DHT22;8484;50.904;9.192;2023-06-04T03:05:59;10.40;96.60
16732;DHT22;8484;50.904;9.192;2023-06-04T03:08:29;10.40;96.60
16732;DHT22;8484;50.904;9.192;2023-06-04T03:10:56;10.30;96.80
16732;DHT22;8484;50.904;9.192;2023-06-04T03:13:23;10.50;97.00
16732;DHT22;8484;50.904;9.192;2023-06-04T03:15:53;10.40;96.80
16732;DHT22;8484;50.904;9.192;2023-06-04T03:18:20;10.30;97.00
16732;DHT22;8484;50.904;9.192;2023-06-04T03:20:48;10.40;97.20
16732;DHT22;8484;50.904;9.192;2023-06-04T03:23:15;10.50;97.30
16732;DHT22;8484;50.904;9.192;2023-06-04T03:25:44;10.40;97.20
16732;DHT22;8484;50.904;9.192;2023-06-04T03:28:10;10.40;97.30
16732;DHT22;8484;50.904;9.192;2023-06-04T03:30:37;10.40;97.20
16732;DHT22;8484;50.904;9.192;2023-06-04T03:33:04;10.40;97.20
16732;DHT22;8484;50.904;9.192;2023-06-04T03:35:31;10.40;97.30
16732;DHT22;8484;50.904;9.192;2023-06-04T03:37:59;10.60;97.10
16732;DHT22;8484;50.904;9.192;2023-06-04T03:40:26;10.50;97.10
16732;DHT22;8484;50.904;9.192;2023-06-04T03:42:54;10.60;96.90
16732;DHT22;8484;50.904;9.192;2023-06-04T03:45:21;10.60;96.80
16732;DHT22;8484;50.904;9.192;2023-06-04T03:47:48;10.60;96.70
16732;DHT22;8484;50.904;9.192;2023-06-04T03:50:15;10.60;96.80
16732;DHT22;8484;50.904;9.192;2023-06-04T03:52:42;10.50;96.80
16732;DHT22;8484;50.904;9.192;2023-06-04T03:55:08;10.60;96.70
16732;DHT22;8484;50.904;9.192;2023-06-04T03:57:36;10.70;96.80
16732;DHT22;8484;50.904;9.192;2023-06-04T04:00:06;10.80;96.50
16732;DHT22;8484;50.904;9.192;2023-06-04T04:02:36;10.90;96.30
16732;DHT22;8484;50.904;9.192;2023-06-04T04:05:03;10.90;96.40
16732;DHT22;8484;50.904;9.192;2023-06-04T04:07:30;10.80;96.70
16732;DHT22;8484;50.904;9.192;2023-06-04T04:09:57;10.90;96.50
16732;DHT22;8484;50.904;9.192;2023-06-04T04:12:24;10.90;96.30
16732;DHT22;8484;50.904;9.192;2023-06-04T04:14:51;10.90;96.60
16732;DHT22;8484;50.904;9.192;2023-06-04T04:17:19;11.10;96.40
16732;DHT22;8484;50.904;9.192;2023-06-04T04:19:46;11.20;96.50
16732;DHT22;8484;50.904;9.192;2023-06-04T04:22:13;11.30;96.50
16732;DHT22;8484;50.904;9.192;2023-06-04T04:24:43;11.30;96.60
16732;DHT22;8484;50.904;9.192;2023-06-04T04:27:11;11.30;97.40
16732;DHT22;8484;50.904;9.192;2023-06-04T04:29:41;11.40;97.20
16732;DHT22;8484;50.904;9.192;2023-06-04T04:32:09;11.10;98.30
16732;DHT22;8484;50.904;9.192;2023-06-04T04:34:38;11.00;98.70
16732;DHT22;8484;50.904;9.192;2023-06-04T04:37:17;11.10;98.80
16732;DHT22;8484;50.904;9.192;2023-06-04T04:39:46;11.10;98.90
16732;DHT22;8484;50.904;9.192;2023-06-04T04:42:15;11.10;99.20
16732;DHT22;8484;50.904;9.192;2023-06-04T04:44:42;11.20;99.10
16732;DHT22;8484;50.904;9.192;2023-06-04T04:47:12;11.40;98.90
16732;DHT22;8484;50.904;9.192;2023-06-04T04:49:41;11.60;98.50
16732;DHT22;8484;50.904;9.192;2023-06-04T04:52:08;11.60;97.20
16732;DHT22;8484;50.904;9.192;2023-06-04T04:54:35;11.80;96.70
16732;DHT22;8484;50.904;9.192;2023-06-04T04:57:02;11.90;96.40
16732;DHT22;8484;50.904;9.192;2023-06-04T04:59:29;11.90;95.90
16732;DHT22;8484;50.904;9.192;2023-06-04T05:01:55;12.20;95.70
16732;DHT22;8484;50.904;9.192;2023-06-04T05:04:22;12.30;95.60
16732;DHT22;8484;50.904;9.192;2023-06-04T05:06:51;12.40;95.30
16732;DHT22;8484;50.904;9.192;2023-06-04T05:09:18;12.40;95.10
16732;DHT22;8484;50.904;9.192;2023-06-04T05:11:45;12.50;95.20
16732;DHT22;8484;50.904;9.192;2023-06-04T05:14:12;12.60;94.70
16732;DHT22;8484;50.904;9.192;2023-06-04T05:16:39;12.70;94.50
16732;DHT22;8484;50.904;9.192;2023-06-04T05:19:07;12.80;94.50
16732;DHT22;8484;50.904;9.192;2023-06-04T05:21:36;12.90;94.10
16732;DHT22;8484;50.904;9.192;2023-06-04T05:24:05;13.10;94.60
16732;DHT22;8484;50.904;9.192;2023-06-04T05:26:32;13.20;93.50
16732;DHT22;8484;50.904;9.192;2023-06-04T05:28:58;13.20;93.60
16732;DHT22;8484;50.904;9.192;2023-06-04T05:31:26;13.30;93.20
16732;DHT22;8484;50.904;9.192;2023-06-04T05:33:53;13.30;93.10
16732;DHT22;8484;50.904;9.192;2023-06-04T05:36:20;13.50;93.20
16732;DHT22;8484;50.904;9.192;2023-06-04T05:38:47;13.50;92.60
16732;DHT22;8484;50.904;9.192;2023-06-04T05:41:24;13.50;92.10
16732;DHT22;8484;50.904;9.192;2023-06-04T05:43:51;13.60;92.20
16732;DHT22;8484;50.904;9.192;2023-06-04T05:46:18;13.70;91.50
16732;DHT22;8484;50.904;9.192;2023-06-04T05:48:45;13.80;91.00
16732;DHT22;8484;50.904;9.192;2023-06-04T05:51:13;13.90;91.20
16732;DHT22;8484;50.904;9.192;2023-06-04T05:53:40;14.00;91.00
16732;DHT22;8484;50.904;9.192;2023-06-04T05:56:07;14.10;90.90
16732;DHT22;8484;50.904;9.192;2023-06-04T05:58:36;14.20;90.70
16732;DHT22;8484;50.904;9.192;2023-06-04T06:01:03;14.40;90.90
16732;DHT22;8484;50.904;9.192;2023-06-04T06:03:30;14.60;91.10
16732;DHT22;8484;50.904;9.192;2023-06-04T06:05:57;14.70;90.90
16732;DHT22;8484;50.904;9.192;2023-06-04T06:08:25;14.70;91.20
16732;DHT22;8484;50.904;9.192;2023-06-04T06:10:55;14.70;91.80
16732;DHT22;8484;50.904;9.192;2023-06-04T06:13:22;14.80;91.10
16732;DHT22;8484;50.904;9.192;2023-06-04T06:15:50;15.00;90.70
16732;DHT22;8484;50.904;9.192;2023-06-04T06:18:18;15.20;91.00
16732;DHT22;8484;50.904;9.192;2023-06-04T06:20:47;15.30;90.70
16732;DHT22;8484;50.904;9.192;2023-06-04T06:23:14;15.50;91.00
16732;DHT22;8484;50.904;9.192;2023-06-04T06:25:42;15.50;90.40
16732;DHT22;8484;50.904;9.192;2023-06-04T06:28:11;15.70;89.00
16732;DHT22;8484;50.904;9.192;2023-06-04T06:30:40;15.70;90.50
16732;DHT22;8484;50.904;9.192;2023-06-04T06:33:09;15.90;89.90
16732;DHT22;8484;50.904;9.192;2023-06-04T06:35:36;16.00;89.00
16732;DHT22;8484;50.904;9.192;2023-06-04T06:38:03;16.10;88.20
16732;DHT22;8484;50.904;9.192;2023-06-04T06:40:30;16.20;88.30
16732;DHT22;8484;50.904;9.192;2023-06-04T06:42:57;16.30;88.40
16732;DHT22;8484;50.904;9.192;2023-06-04T06:45:24;16.50;87.80
16732;DHT22;8484;50.904;9.192;2023-06-04T06:47:51;16.70;89.30
16732;DHT22;8484;50.904;9.192;2023-06-04T06:50:19;16.80;87.80
16732;DHT22;8484;50.904;9.192;2023-06-04T06:52:46;16.80;86.40
16732;DHT22;8484;50.904;9.192;2023-06-04T06:55:13;16.90;88.00
16732;DHT22;8484;50.904;9.192;2023-06-04T06:57:40;16.90;87.80
16732;DHT22;8484;50.904;9.192;2023-06-04T07:00:09;17.20;86.70
16732;DHT22;8484;50.904;9.192;2023-06-04T07:02:36;17.30;85.00
16732;DHT22;8484;50.904;9.192;2023-06-04T07:05:03;17.30;86.20
16732;DHT22;8484;50.904;9.192;2023-06-04T07:07:31;17.50;85.80
16732;DHT22;8484;50.904;9.192;2023-06-04T07:09:58;17.70;84.40
16732;DHT22;8484;50.904;9.192;2023-06-04T07:12:25;17.70;86.00
16732;DHT22;8484;50.904;9.192;2023-06-04T07:14:52;17.60;85.30
16732;DHT22;8484;50.904;9.192;2023-06-04T07:17:19;18.00;85.50
16732;DHT22;8484;50.904;9.192;2023-06-04T07:19:46;18.10;84.30
16732;DHT22;8484;50.904;9.192;2023-06-04T07:22:13;18.20;83.90
16732;DHT22;8484;50.904;9.192;2023-06-04T07:24:42;18.60;83.60
16732;DHT22;8484;50.904;9.192;2023-06-04T07:27:10;18.60;83.40
16732;DHT22;8484;50.904;9.192;2023-06-04T07:29:38;19.00;83.10
16732;DHT22;8484;50.904;9.192;2023-06-04T07:32:05;19.20;82.10
16732;DHT22;8484;50.904;9.192;2023-06-04T07:34:32;19.20;82.80
16732;DHT22;8484;50.904;9.192;2023-06-04T07:36:59;19.30;85.00
16732;DHT22;8484;50.904;9.192;2023-06-04T07:39:26;19.60;83.10
16732;DHT22;8484;50.904;9.192;2023-06-04T07:41:54;19.80;83.20
16732;DHT22;8484;50.904;9.192;2023-06-04T07:44:21;19.70;82.30
16732;DHT22;8484;50.904;9.192;2023-06-04T07:46:48;20.00;83.20
16732;DHT22;8484;50.904;9.192;2023-06-04T07:49:15;20.30;82.50
16732;DHT22;8484;50.904;9.192;2023-06-04T07:51:42;20.20;82.90
16732;DHT22;8484;50.904;9.192;2023-06-04T07:54:09;20.40;81.30
16732;DHT22;8484;50.904;9.192;2023-06-04T07:56:37;20.00;86.20
16732;DHT22;8484;50.904;9.192;2023-06-04T07:59:06;20.10;84.20
16732;DHT22;8484;50.904;9.192;2023-06-04T08:01:33;20.60;80.80
16732;DHT22;8484;50.904;9.192;2023-06-04T08:04:00;20.80;82.00
16732;DHT22;8484;50.904;9.192;2023-06-04T08:06:27;20.60;80.50
16732;DHT22;8484;50.904;9.192;2023-06-04T08:08:54;20.70;83.40
16732;DHT22;8484;50.904;9.192;2023-06-04T08:11:21;20.80;82.80
16732;DHT22;8484;50.904;9.192;2023-06-04T08:13:50;21.10;81.30
16732;DHT22;8484;50.904;9.192;2023-06-04T08:16:18;21.20;80.00
16732;DHT22;8484;50.904;9.192;2023-06-04T08:18:47;21.10;80.60
16732;DHT22;8484;50.904;9.192;2023-06-04T08:21:14;21.70;78.40
16732;DHT22;8484;50.904;9.192;2023-06-04T08:23:51;22.10;75.50
16732;DHT22;8484;50.904;9.192;2023-06-04T08:26:18;22.20;78.20
16732;DHT22;8484;50.904;9.192;2023-06-04T08:28:47;21.60;78.70
16732;DHT22;8484;50.904;9.192;2023-06-04T08:31:14;22.00;78.20
16732;DHT22;8484;50.904;9.192;2023-06-04T08:33:45;21.80;75.20
16732;DHT22;8484;50.904;9.192;2023-06-04T08:36:12;22.20;76.10
16732;DHT22;8484;50.904;9.192;2023-06-04T08:38:39;22.60;74.60
16732;DHT22;8484;50.904;9.192;2023-06-04T08:41:14;22.70;73.40
16732;DHT22;8484;50.904;9.192;2023-06-04T08:43:42;22.80;74.00
16732;DHT22;8484;50.904;9.192;2023-06-04T08:46:12;22.70;75.20
16732;DHT22;8484;50.904;9.192;2023-06-04T08:48:40;22.70;76.90
16732;DHT22;8484;50.904;9.192;2023-06-04T08:51:10;23.20;73.80
16732;DHT22;8484;50.904;9.192;2023-06-04T08:53:37;23.30;73.60
16732;DHT22;8484;50.904;9.192;2023-06-04T08:56:04;23.20;73.60
16732;DHT22;8484;50.904;9.192;2023-06-04T08:58:32;22.70;75.80
16732;DHT22;8484;50.904;9.192;2023-06-04T09:01:00;22.80;76.80
16732;DHT22;8484;50.904;9.192;2023-06-04T09:03:28;22.90;73.50
16732;DHT22;8484;50.904;9.192;2023-06-04T09:05:57;23.00;74.00
16732;DHT22;8484;50.904;9.192;2023-06-04T09:08:27;22.70;76.10
16732;DHT22;8484;50.904;9.192;2023-06-04T09:10:57;23.60;73.90
16732;DHT22;8484;50.904;9.192;2023-06-04T09:13:28;24.20;67.90
16732;DHT22;8484;50.904;9.192;2023-06-04T09:16:00;24.10;71.80
16732;DHT22;8484;50.904;9.192;2023-06-04T09:18:31;23.00;67.60
16732;DHT22;8484;50.904;9.192;2023-06-04T09:21:03;23.20;67.80
16732;DHT22;8484;50.904;9.192;2023-06-04T09:23:34;23.50;66.20
16732;DHT22;8484;50.904;9.192;2023-06-04T09:26:08;23.80;67.30
16732;DHT22;8484;50.904;9.192;2023-06-04T09:28:35;23.60;67.10
16732;DHT22;8484;50.904;9.192;2023-06-04T09:31:04;23.60;63.10
16732;DHT22;8484;50.904;9.192;2023-06-04T09:33:42;22.60;65.90
16732;DHT22;8484;50.904;9.192;2023-06-04T09:36:09;22.70;66.20
16732;DHT22;8484;50.904;9.192;2023-06-04T09:38:38;23.10;67.30
16732;DHT22;8484;50.904;9.192;2023-06-04T09:41:11;23.40;67.50
16732;DHT22;8484;50.904;9.192;2023-06-04T09:43:38;23.30;65.20
16732;DHT22;8484;50.904;9.192;2023-06-04T09:46:10;23.50;65.10
16732;DHT22;8484;50.904;9.192;2023-06-04T09:48:37;22.90;66.00
16732;DHT22;8484;50.904;9.192;2023-06-04T09:51:09;23.10;65.90
16732;DHT22;8484;50.904;9.192;2023-06-04T09:53:38;23.30;61.60
16732;DHT22;8484;50.904;9.192;2023-06-04T09:56:05;23.50;65.60
16732;DHT22;8484;50.904;9.192;2023-06-04T09:58:33;23.70;63.40
16732;DHT22;8484;50.904;9.192;2023-06-04T10:01:02;23.70;66.50
16732;DHT22;8484;50.904;9.192;2023-06-04T10:03:31;24.50;63.50
16732;DHT22;8484;50.904;9.192;2023-06-04T10:06:01;24.50;63.10
16732;DHT22;8484;50.904;9.192;2023-06-04T10:08:30;23.90;61.70
16732;DHT22;8484;50.904;9.192;2023-06-04T10:13:41;24.60;63.30
16732;DHT22;8484;50.904;9.192;2023-06-04T10:16:12;25.20;65.60
16732;DHT22;8484;50.904;9.192;2023-06-04T10:18:40;25.30;64.00
16732;DHT22;8484;50.904;9.192;2023-06-04T10:21:08;25.50;60.70
16732;DHT22;8484;50.904;9.192;2023-06-04T10:23:36;25.70;63.60
16732;DHT22;8484;50.904;9.192;2023-06-04T10:26:03;25.60;63.30
16732;DHT22;8484;50.904;9.192;2023-06-04T10:28:30;24.30;59.70
16732;DHT22;8484;50.904;9.192;2023-06-04T10:30:59;24.00;63.40
16732;DHT22;8484;50.904;9.192;2023-06-04T10:33:27;24.10;62.20
16732;DHT22;8484;50.904;9.192;2023-06-04T10:35:55;24.10;63.30
16732;DHT22;8484;50.904;9.192;2023-06-04T10:38:22;24.00;60.30
16732;DHT22;8484;50.904;9.192;2023-06-04T10:40:49;24.30;59.80
16732;DHT22;8484;50.904;9.192;2023-06-04T10:43:17;24.40;59.20
16732;DHT22;8484;50.904;9.192;2023-06-04T10:45:45;23.40;59.30
16732;DHT22;8484;50.904;9.192;2023-06-04T10:48:14;23.60;57.20
16732;DHT22;8484;50.904;9.192;2023-06-04T10:50:49;23.60;60.80
16732;DHT22;8484;50.904;9.192;2023-06-04T10:53:17;23.40;59.10
16732;DHT22;8484;50.904;9.192;2023-06-04T10:55:45;24.70;59.30
16732;DHT22;8484;50.904;9.192;2023-06-04T10:58:13;25.10;59.00
16732;DHT22;8484;50.904;9.192;2023-06-04T11:00:42;25.00;58.00
16732;DHT22;8484;50.904;9.192;2023-06-04T11:03:10;25.40;56.70
16732;DHT22;8484;50.904;9.192;2023-06-04T11:05:40;25.00;59.20
16732;DHT22;8484;50.904;9.192;2023-06-04T11:08:09;25.20;59.30
16732;DHT22;8484;50.904;9.192;2023-06-04T11:10:39;24.10;58.70
16732;DHT22;8484;50.904;9.192;2023-06-04T11:13:06;24.80;59.20
16732;DHT22;8484;50.904;9.192;2023-06-04T11:15:41;25.30;56.70
16732;DHT22;8484;50.904;9.192;2023-06-04T11:18:13;25.60;59.40
16732;DHT22;8484;50.904;9.192;2023-06-04T11:20:41;26.00;60.10
16732;DHT22;8484;50.904;9.192;2023-06-04T11:23:11;25.40;59.60
16732;DHT22;8484;50.904;9.192;2023-06-04T11:25:39;26.00;58.10
16732;DHT22;8484;50.904;9.192;2023-06-04T11:28:08;26.40;58.10
16732;DHT22;8484;50.904;9.192;2023-06-04T11:30:41;26.50;56.80
16732;DHT22;8484;50.904;9.192;2023-06-04T11:33:07;27.00;56.10
16732;DHT22;8484;50.904;9.192;2023-06-04T11:35:41;26.30;57.20
16732;DHT22;8484;50.904;9.192;2023-06-04T11:38:12;27.30;58.20
16732;DHT22;8484;50.904;9.192;2023-06-04T11:40:39;27.40;57.20
16732;DHT22;8484;50.904;9.192;2023-06-04T11:43:10;27.60;56.40
16732;DHT22;8484;50.904;9.192;2023-06-04T11:45:37;26.70;57.50
16732;DHT22;8484;50.904;9.192;2023-06-04T11:48:05;26.10;57.60
16732;DHT22;8484;50.904;9.192;2023-06-04T11:50:32;25.70;58.00
16732;DHT22;8484;50.904;9.192;2023-06-04T11:53:01;26.40;56.10
16732;DHT22;8484;50.904;9.192;2023-06-04T11:55:28;26.80;56.40
16732;DHT22;8484;50.904;9.192;2023-06-04T11:57:56;25.60;57.70
16732;DHT22;8484;50.904;9.192;2023-06-04T12:00:23;25.20;57.00
16732;DHT22;8484;50.904;9.192;2023-06-04T12:02:52;26.10;58.80
16732;DHT22;8484;50.904;9.192;2023-06-04T12:05:20;26.90;57.70
16732;DHT22;8484;50.904;9.192;2023-06-04T12:07:49;26.50;57.40
16732;DHT22;8484;50.904;9.192;2023-06-04T12:10:18;26.70;57.20
16732;DHT22;8484;50.904;9.192;2023-06-04T12:12:46;26.20;57.40
16732;DHT22;8484;50.904;9.192;2023-06-04T12:15:19;26.50;55.80
16732;DHT22;8484;50.904;9.192;2023-06-04T12:17:50;27.80;53.70
16732;DHT22;8484;50.904;9.192;2023-06-04T12:20:18;28.50;54.30
16732;DHT22;8484;50.904;9.192;2023-06-04T12:22:46;28.00;55.10
16732;DHT22;8484;50.904;9.192;2023-06-04T12:25:25;26.80;56.00
16732;DHT22;8484;50.904;9.192;2023-06-04T12:27:52;25.80;56.90
16732;DHT22;8484;50.904;9.192;2023-06-04T12:30:19;26.70;56.60
16732;DHT22;8484;50.904;9.192;2023-06-04T12:32:47;27.20;54.20
16732;DHT22;8484;50.904;9.192;2023-06-04T12:35:14;26.80;55.30
16732;DHT22;8484;50.904;9.192;2023-06-04T12:37:41;25.40;57.60
16732;DHT22;8484;50.904;9.192;2023-06-04T12:40:09;26.10;56.90
16732;DHT22;8484;50.904;9.192;2023-06-04T12:42:37;26.40;55.60
16732;DHT22;8484;50.904;9.192;2023-06-04T12:45:05;26.30;57.20
16732;DHT22;8484;50.904;9.192;2023-06-04T12:47:32;25.70;56.70
16732;DHT22;8484;50.904;9.192;2023-06-04T12:49:59;25.40;60.00
16732;DHT22;8484;50.904;9.192;2023-06-04T12:52:26;26.10;57.90
16732;DHT22;8484;50.904;9.192;2023-06-04T12:54:53;25.80;56.70
16732;DHT22;8484;50.904;9.192;2023-06-04T12:57:20;25.90;59.20
16732;DHT22;8484;50.904;9.192;2023-06-04T12:59:48;26.40;55.50
16732;DHT22;8484;50.904;9.192;2023-06-04T13:02:15;27.50;55.70
16732;DHT22;8484;50.904;9.192;2023-06-04T13:04:42;27.40;54.60
16732;DHT22;8484;50.904;9.192;2023-06-04T13:07:11;26.60;56.60
16732;DHT22;8484;50.904;9.192;2023-06-04T13:09:38;26.50;56.90
16732;DHT22;8484;50.904;9.192;2023-06-04T13:12:06;27.10;56.80
16732;DHT22;8484;50.904;9.192;2023-06-04T13:14:35;27.20;56.60
16732;DHT22;8484;50.904;9.192;2023-06-04T13:17:03;27.10;56.70
16732;DHT22;8484;50.904;9.192;2023-06-04T13:19:30;26.80;55.20
16732;DHT22;8484;50.904;9.192;2023-06-04T13:21:58;26.30;55.80
16732;DHT22;8484;50.904;9.192;2023-06-04T13:24:25;27.20;52.90
16732;DHT22;8484;50.904;9.192;2023-06-04T13:26:51;27.20;55.20
16732;DHT22;8484;50.904;9.192;2023-06-04T13:29:18;27.00;53.10
16732;DHT22;8484;50.904;9.192;2023-06-04T13:31:48;26.80;55.00
16732;DHT22;8484;50.904;9.192;2023-06-04T13:34:16;26.60;55.00
16732;DHT22;8484;50.904;9.192;2023-06-04T13:36:43;26.80;52.50
16732;DHT22;8484;50.904;9.192;2023-06-04T13:39:10;27.30;52.80
16732;DHT22;8484;50.904;9.192;2023-06-04T13:41:36;27.10;54.50
16732;DHT22;8484;50.904;9.192;2023-06-04T13:44:04;27.00;53.90
16732;DHT22;8484;50.904;9.192;2023-06-04T13:46:32;26.00;53.80
16732;DHT22;8484;50.904;9.192;2023-06-04T13:48:59;25.90;54.50
16732;DHT22;8484;50.904;9.192;2023-06-04T13:51:27;26.40;53.20
16732;DHT22;8484;50.904;9.192;2023-06-04T13:53:55;26.90;52.10
16732;DHT22;8484;50.904;9.192;2023-06-04T13:56:22;26.10;53.80
16732;DHT22;8484;50.904;9.192;2023-06-04T13:58:49;26.20;55.90
16732;DHT22;8484;50.904;9.192;2023-06-04T14:01:16;26.10;53.90
16732;DHT22;8484;50.904;9.192;2023-06-04T14:03:44;26.70;54.70
16732;DHT22;8484;50.904;9.192;2023-06-04T14:06:11;26.10;54.60
16732;DHT22;8484;50.904;9.192;2023-06-04T14:08:39;26.20;54.00
16732;DHT22;8484;50.904;9.192;2023-06-04T14:11:06;25.50;52.70
16732;DHT22;8484;50.904;9.192;2023-06-04T14:13:33;25.60;53.00
16732;DHT22;8484;50.904;9.192;2023-06-04T14:16:00;25.50;54.50
16732;DHT22;8484;50.904;9.192;2023-06-04T14:18:27;25.70;52.00
16732;DHT22;8484;50.904;9.192;2023-06-04T14:20:55;26.30;51.30
16732;DHT22;8484;50.904;9.192;2023-06-04T14:23:22;26.30;51.50
16732;DHT22;8484;50.904;9.192;2023-06-04T14:25:50;26.40;53.50
16732;DHT22;8484;50.904;9.192;2023-06-04T14:28:17;25.80;54.20
16732;DHT22;8484;50.904;9.192;2023-06-04T14:30:46;25.50;52.90
16732;DHT22;8484;50.904;9.192;2023-06-04T14:33:13;25.20;54.30
16732;DHT22;8484;50.904;9.192;2023-06-04T14:35:41;25.20;54.80
16732;DHT22;8484;50.904;9.192;2023-06-04T14:38:12;25.00;55.80
16732;DHT22;8484;50.904;9.192;2023-06-04T14:40:39;24.90;54.80
16732;DHT22;8484;50.904;9.192;2023-06-04T14:43:09;24.90;56.40
16732;DHT22;8484;50.904;9.192;2023-06-04T14:45:36;24.80;56.20
16732;DHT22;8484;50.904;9.192;2023-06-04T14:48:05;25.00;55.50
16732;DHT22;8484;50.904;9.192;2023-06-04T14:50:33;25.00;55.70
16732;DHT22;8484;50.904;9.192;2023-06-04T14:53:00;25.00;55.40
16732;DHT22;8484;50.904;9.192;2023-06-04T14:55:27;24.00;57.30
16732;DHT22;8484;50.904;9.192;2023-06-04T14:57:54;24.30;58.20
16732;DHT22;8484;50.904;9.192;2023-06-04T15:00:22;24.30;59.40
16732;DHT22;8484;50.904;9.192;2023-06-04T15:02:49;25.00;57.00
16732;DHT22;8484;50.904;9.192;2023-06-04T15:05:16;24.70;57.10
16732;DHT22;8484;50.904;9.192;2023-06-04T15:07:43;25.10;56.10
16732;DHT22;8484;50.904;9.192;2023-06-04T15:10:10;26.00;54.50
16732;DHT22;8484;50.904;9.192;2023-06-04T15:12:39;26.30;56.10
16732;DHT22;8484;50.904;9.192;2023-06-04T15:15:07;25.50;56.20
16732;DHT22;8484;50.904;9.192;2023-06-04T15:17:36;24.70;56.60
16732;DHT22;8484;50.904;9.192;2023-06-04T15:20:04;24.60;56.80
16732;DHT22;8484;50.904;9.192;2023-06-04T15:22:31;24.40;57.60
16732;DHT22;8484;50.904;9.192;2023-06-04T15:24:58;24.50;55.80
16732;DHT22;8484;50.904;9.192;2023-06-04T15:27:25;24.90;55.80
16732;DHT22;8484;50.904;9.192;2023-06-04T15:29:52;24.80;56.90
16732;DHT22;8484;50.904;9.192;2023-06-04T15:32:19;24.80;56.10
16732;DHT22;8484;50.904;9.192;2023-06-04T15:34:48;24.50;57.60
16732;DHT22;8484;50.904;9.192;2023-06-04T15:37:15;24.90;55.60
16732;DHT22;8484;50.904;9.192;2023-06-04T15:39:42;24.90;56.40
16732;DHT22;8484;50.904;9.192;2023-06-04T15:42:09;24.50;56.10
16732;DHT22;8484;50.904;9.192;2023-06-04T15:44:37;24.30;54.60
16732;DHT22;8484;50.904;9.192;2023-06-04T15:47:04;24.10;56.40
16732;DHT22;8484;50.904;9.192;2023-06-04T15:49:31;23.90;56.80
16732;DHT22;8484;50.904;9.192;2023-06-04T15:51:59;23.50;55.80